Lowgap, North Carolina
Current Conditions -  °F | °C
As of 11:15 PM on Tuesday 27 Jan 2015 (Local Time) from KHLX Reporting Station
Scattered Clouds Scattered Clouds  
Wind Chill:   Ceiling: Unl
Heat Index: 19°   Visibility: 10mi
Dew Point:   Wind: 13mph
Humidity: 63%   Direction: 320°NW
Pressure: 29.96"   Gusts: 18mph
Location:  36.53°N, 80.87°W
Report Text: KHLX 280415Z AUTO 32011G16KT 10SM SCT026 M07/M13 A2996 RMK AO2 T10701130
Loading
Personal Weather Stations






























Interactive Weather Map New forecast layout! Learn more

10-Day Weather Forecast

Advertisements
Track Severe Weather on mobile